createdAt,value
2023-05-25T00:02:27.642Z,98389.97
2023-05-25T00:07:29.992Z,98397.78
2023-05-25T00:12:32.223Z,98390.44
2023-05-25T00:17:37.457Z,98387.69
2023-05-25T00:22:45.129Z,98392.28
2023-05-25T00:27:47.361Z,98387.84
2023-05-25T00:32:49.565Z,98389.09
2023-05-25T00:37:52.163Z,98390.44
2023-05-25T00:42:56.448Z,98388.63
2023-05-25T00:48:00.802Z,98387.84
2023-05-25T00:53:03.041Z,98384.34
2023-05-25T00:58:08.100Z,98379.78
2023-05-25T01:03:18.084Z,98376.38
2023-05-25T01:08:23.416Z,98375.25
2023-05-25T01:13:28.936Z,98370.88
2023-05-25T01:18:33.918Z,98372.09
2023-05-25T01:23:38.236Z,98374.56
2023-05-25T01:28:46.868Z,98365.41
2023-05-25T01:33:52.008Z,98368.44
2023-05-25T01:38:54.373Z,98359.06
2023-05-25T01:43:56.833Z,98372.28
2023-05-25T01:49:29.022Z,98382.69
2023-05-25T01:54:52.231Z,98373.63
2023-05-25T02:00:02.662Z,98372.22
2023-05-25T02:05:16.037Z,98378.22
2023-05-25T02:10:18.178Z,98375.84
2023-05-25T02:15:22.097Z,98363.63
2023-05-25T02:20:25.054Z,98363.59
2023-05-25T02:25:27.365Z,98359.94
2023-05-25T02:30:30.320Z,98353.78
2023-05-25T02:35:33.489Z,98350.66
2023-05-25T02:40:36.384Z,98346.28
2023-05-25T02:45:38.587Z,98352.75
2023-05-25T02:50:40.990Z,98351.63
2023-05-25T02:55:47.553Z,98361.69
2023-05-25T03:00:55.404Z,98360.28
2023-05-25T03:05:57.958Z,98364.84
2023-05-25T03:11:00.123Z,98375.78
2023-05-25T03:16:02.627Z,98375.25
2023-05-25T03:21:04.966Z,98368.16
2023-05-25T03:26:07.997Z,98382.34
2023-05-25T03:31:12.278Z,98386.28
2023-05-25T03:36:17.509Z,98382.94
2023-05-25T03:41:20.450Z,98377.81
2023-05-25T03:46:22.984Z,98379.41
2023-05-25T03:51:25.590Z,98372.38
2023-05-25T03:56:27.783Z,98384.34
2023-05-25T04:01:30.349Z,98387.81
2023-05-25T04:06:34.224Z,98403.16
2023-05-25T04:11:36.343Z,98407.97
2023-05-25T04:16:40.426Z,98415.59
2023-05-25T04:21:43.010Z,98416.88
2023-05-25T04:26:46.954Z,98402.81
2023-05-25T04:31:49.880Z,98403.50
2023-05-25T04:37:17.374Z,98411.38
2023-05-25T04:42:24.249Z,98409.63
2023-05-25T04:47:31.167Z,98418.94
2023-05-25T04:52:33.704Z,98417.34
2023-05-25T04:57:36.270Z,98423.72
2023-05-25T05:02:38.505Z,98424.94
2023-05-25T05:07:41.500Z,98434.44
2023-05-25T05:12:43.799Z,98426.00
2023-05-25T05:17:46.788Z,98421.25
2023-05-25T05:22:49.993Z,98434.38
2023-05-25T05:27:53.094Z,98442.41
2023-05-25T05:33:02.148Z,98452.59
2023-05-25T05:38:12.556Z,98446.66
2023-05-25T05:43:15.003Z,98455.28
2023-05-25T05:48:17.200Z,98460.00
2023-05-25T05:53:20.019Z,98463.25
2023-05-25T05:58:22.567Z,98468.59
2023-05-25T06:03:31.155Z,98482.72
2023-05-25T06:08:33.506Z,98484.88
2023-05-25T06:13:35.872Z,98486.41
2023-05-25T06:18:38.819Z,98497.56
2023-05-25T06:23:42.320Z,98490.06
2023-05-25T06:28:44.698Z,98486.84
2023-05-25T06:33:47.062Z,98483.63
2023-05-25T06:38:49.230Z,98484.97
2023-05-25T06:43:51.904Z,98496.09
2023-05-25T06:49:17.417Z,98494.69
2023-05-25T06:54:20.939Z,98485.59
2023-05-25T06:59:23.617Z,98492.44
2023-05-25T07:04:25.871Z,98505.16
2023-05-25T07:09:28.076Z,98510.06
2023-05-25T07:14:30.444Z,98516.00
2023-05-25T07:19:32.732Z,98514.50
2023-05-25T07:24:34.892Z,98513.72
2023-05-25T07:29:37.085Z,98526.75
2023-05-25T07:34:39.612Z,98522.78
2023-05-25T07:39:41.905Z,98523.09
2023-05-25T07:44:44.042Z,98522.47
2023-05-25T07:49:46.274Z,98528.28
2023-05-25T07:54:48.916Z,98527.91
2023-05-25T07:59:51.478Z,98525.16
2023-05-25T08:04:54.526Z,98514.31
2023-05-25T08:09:56.690Z,98511.31
2023-05-25T08:14:58.977Z,98510.41
2023-05-25T08:20:01.222Z,98513.38
2023-05-25T08:25:05.458Z,98507.81
2023-05-25T08:30:08.571Z,98516.59
2023-05-25T08:35:11.194Z,98517.97
2023-05-25T08:40:16.828Z,98526.75
2023-05-25T08:45:33.499Z,98532.41
2023-05-25T08:50:39.446Z,98529.91
2023-05-25T08:55:43.857Z,98526.22
2023-05-25T09:01:02.003Z,98521.25
2023-05-25T09:06:04.860Z,98518.03
2023-05-25T09:11:08.258Z,98510.94
2023-05-25T09:16:11.319Z,98516.78
2023-05-25T09:21:13.558Z,98515.44
2023-05-25T09:26:15.790Z,98525.50
2023-05-25T09:31:18.031Z,98525.81
2023-05-25T09:36:22.240Z,98521.22
2023-05-25T09:41:27.836Z,98527.81
2023-05-25T09:46:32.391Z,98531.53
2023-05-25T09:51:36.821Z,98530.09
2023-05-25T09:56:39.203Z,98529.53
2023-05-25T10:01:43.931Z,98529.69
2023-05-25T10:06:52.502Z,98529.59
2023-05-25T10:11:57.760Z,98527.97
2023-05-25T10:17:04.169Z,98528.66
2023-05-25T10:22:22.248Z,98536.06
2023-05-25T10:27:37.310Z,98523.38
2023-05-25T10:32:41.244Z,98526.16
2023-05-25T10:37:46.334Z,98519.81
2023-05-25T10:42:50.894Z,98524.88
2023-05-25T10:47:53.591Z,98518.38
2023-05-25T10:53:13.210Z,98519.38
2023-05-25T10:58:18.421Z,98524.94
2023-05-25T11:03:20.924Z,98526.19
2023-05-25T11:08:23.898Z,98528.06
2023-05-25T11:13:32.195Z,98513.47
2023-05-25T11:18:55.934Z,98512.47
2023-05-25T11:24:00.223Z,98514.69
2023-05-25T11:29:15.935Z,98519.97
2023-05-25T11:34:18.904Z,98514.28
2023-05-25T11:39:23.629Z,98501.91
2023-05-25T11:44:36.561Z,98502.94
2023-05-25T11:49:45.181Z,98502.69
2023-05-25T11:54:47.932Z,98499.91
2023-05-25T11:59:55.740Z,98499.59
2023-05-25T12:05:02.514Z,98498.84
2023-05-25T12:10:11.028Z,98495.34
2023-05-25T12:15:21.893Z,98493.09
2023-05-25T12:20:24.924Z,98500.38
2023-05-25T12:25:28.855Z,98492.22
2023-05-25T12:30:38.597Z,98497.22
2023-05-25T12:35:49.964Z,98497.59
2023-05-25T12:41:08.434Z,98496.88
2023-05-25T12:46:10.844Z,98499.13
2023-05-25T12:51:13.164Z,98498.09
2023-05-25T12:56:15.376Z,98492.84
2023-05-25T13:01:17.710Z,98499.13
2023-05-25T13:06:19.943Z,98500.69
2023-05-25T13:11:24.460Z,98497.53
2023-05-25T13:16:26.749Z,98495.66
2023-05-25T13:21:28.971Z,98490.88
2023-05-25T13:26:31.253Z,98487.50
2023-05-25T13:31:33.558Z,98486.03
2023-05-25T13:36:35.964Z,98477.44
2023-05-25T13:41:38.136Z,98483.94
2023-05-25T13:46:40.397Z,98483.69
2023-05-25T13:51:42.983Z,98467.88
2023-05-25T13:56:45.320Z,98478.47
2023-05-25T14:01:47.637Z,98476.50
2023-05-25T14:06:49.962Z,98463.44
2023-05-25T14:11:53.534Z,98459.94
2023-05-25T14:16:56.124Z,98465.53
2023-05-25T14:27:04.708Z,98472.28
2023-05-25T14:32:06.974Z,98470.00
2023-05-25T14:37:09.678Z,98471.00
2023-05-25T14:42:13.272Z,98469.00
2023-05-25T14:47:15.481Z,98464.25
2023-05-25T14:52:17.838Z,98471.28
2023-05-25T14:57:20.011Z,98465.09
2023-05-25T15:02:22.503Z,98467.59
2023-05-25T15:07:25.042Z,98462.47
2023-05-25T15:12:27.255Z,98463.88
2023-05-25T15:17:29.493Z,98466.41
2023-05-25T15:22:31.640Z,98461.66
2023-05-25T15:27:35.017Z,98474.03
2023-05-25T15:32:37.244Z,98461.94
2023-05-25T15:37:39.441Z,98462.47
2023-05-25T15:42:41.766Z,98449.13
2023-05-25T15:47:43.971Z,98453.88
2023-05-25T15:52:47.040Z,98459.91
2023-05-25T15:57:49.284Z,98456.88
2023-05-25T16:02:51.897Z,98447.72
2023-05-25T16:07:54.609Z,98450.72
2023-05-25T16:12:56.788Z,98446.56
2023-05-25T16:17:59.048Z,98446.78
2023-05-25T16:23:01.153Z,98450.25
2023-05-25T16:28:03.358Z,98444.84
2023-05-25T16:33:05.598Z,98447.34
2023-05-25T16:38:07.768Z,98452.41
2023-05-25T16:43:10.205Z,98452.66
2023-05-25T16:48:12.561Z,98449.19
2023-05-25T16:53:14.856Z,98450.69
2023-05-25T16:58:17.169Z,98447.56
2023-05-25T17:03:19.410Z,98442.47
2023-05-25T17:08:21.658Z,98436.72
2023-05-25T17:13:24.243Z,98439.75
2023-05-25T17:18:27.102Z,98436.72
2023-05-25T17:23:29.309Z,98442.34
2023-05-25T17:28:33.076Z,98438.53
2023-05-25T17:33:35.214Z,98447.53
2023-05-25T17:38:38.274Z,98435.38
2023-05-25T17:43:40.569Z,98444.94
2023-05-25T17:48:42.791Z,98454.75
2023-05-25T17:53:44.978Z,98461.66
2023-05-25T17:58:47.940Z,98458.78
2023-05-25T18:03:51.390Z,98458.00
2023-05-25T18:08:54.138Z,98475.25
2023-05-25T18:13:56.477Z,98470.69
2023-05-25T18:18:58.640Z,98479.22
2023-05-25T18:24:01.056Z,98478.19
2023-05-25T18:29:03.335Z,98478.59
2023-05-25T18:34:07.240Z,98482.91
2023-05-25T18:39:09.644Z,98485.75
2023-05-25T18:44:12.009Z,98481.50
2023-05-25T18:49:14.295Z,98489.81
2023-05-25T18:54:16.604Z,98487.56
2023-05-25T18:59:19.153Z,98485.47
2023-05-25T19:04:21.603Z,98494.28
2023-05-25T19:09:24.116Z,98499.53
2023-05-25T19:14:26.513Z,98501.03
2023-05-25T19:19:28.682Z,98508.72
2023-05-25T19:24:30.833Z,98516.94
2023-05-25T19:29:33.255Z,98520.97
2023-05-25T19:34:37.104Z,98527.31
2023-05-25T19:39:39.283Z,98529.41
2023-05-25T19:44:41.776Z,98537.06
2023-05-25T19:49:44.015Z,98534.44
2023-05-25T19:54:46.460Z,98531.91
2023-05-25T19:59:50.250Z,98533.38
2023-05-25T20:04:52.773Z,98539.09
2023-05-25T20:09:55.162Z,98549.88
2023-05-25T20:14:57.471Z,98549.31
2023-05-25T20:20:01.097Z,98549.97
2023-05-25T20:25:03.753Z,98546.28
2023-05-25T20:30:07.045Z,98552.41
2023-05-25T20:35:09.675Z,98562.97
2023-05-25T20:40:12.032Z,98558.41
2023-05-25T20:45:14.519Z,98569.44
2023-05-25T20:50:16.776Z,98569.69
2023-05-25T20:55:20.264Z,98573.59
2023-05-25T21:00:24.255Z,98563.97
2023-05-25T21:05:27.184Z,98567.94
2023-05-25T21:10:29.470Z,98576.53
2023-05-25T21:15:31.999Z,98569.81
2023-05-25T21:20:34.330Z,98575.31
2023-05-25T21:25:37.008Z,98568.91
2023-05-25T21:30:39.194Z,98576.41
2023-05-25T21:35:41.419Z,98576.69
2023-05-25T21:40:43.610Z,98577.78
2023-05-25T21:45:46.077Z,98584.84
2023-05-25T21:50:53.187Z,98585.16
2023-05-25T21:55:55.462Z,98592.81
2023-05-25T22:00:57.646Z,98597.06
2023-05-25T22:05:59.811Z,98592.47
2023-05-25T22:11:02.183Z,98601.38
2023-05-25T22:16:04.479Z,98597.53
2023-05-25T22:21:06.823Z,98605.00
2023-05-25T22:26:09.468Z,98598.56
2023-05-25T22:31:11.780Z,98598.56
2023-05-25T22:36:17.160Z,98605.31
2023-05-25T22:41:19.451Z,98612.94
2023-05-25T22:46:23.561Z,98610.34
2023-05-25T22:51:25.940Z,98603.47
2023-05-25T22:56:28.278Z,98609.56
2023-05-25T23:01:31.059Z,98615.72
2023-05-25T23:06:33.344Z,98614.19
2023-05-25T23:11:35.596Z,98615.41
2023-05-25T23:16:38.072Z,98611.88
2023-05-25T23:21:40.231Z,98622.91
2023-05-25T23:26:42.325Z,98620.38
2023-05-25T23:31:44.758Z,98615.25
2023-05-25T23:36:46.869Z,98618.13
2023-05-25T23:41:48.984Z,98621.13
2023-05-25T23:46:51.297Z,98624.06
2023-05-25T23:51:53.920Z,98626.91
2023-05-25T23:56:56.162Z,98631.78
